Time;durP1;ratioP1;P1;durP2;ratioP2;P2;SDS_P1;SDS_P2;PMS_P1;PMS_P2;Temp;Humidity;BMP_temperature;BMP_pressure;BME280_temperature;BME280_humidity;BME280_pressure;Samples;Min_cycle;Max_cycle;Signal;HPM_P1;HPM_P2
2023/07/18 00:00:42;;;;;;;;;;;;;;;16.87;58.49;101139.97;4982569;28;7071;-72
2023/07/18 00:03:07;;;;;;;;;;;;;;;16.84;58.62;101139.00;4998530;28;6957;-72
2023/07/18 00:05:34;;;;;;;;;;;;;;;16.78;58.46;101143.13;4996796;28;7003;-72
2023/07/18 00:07:59;;;;;;;;;;;;;;;16.72;58.58;101137.75;4998913;28;6812;-73
2023/07/18 00:10:25;;;;;;;;;;;;;;;16.68;58.53;101135.00;5012239;28;6852;-72
2023/07/18 00:12:50;;;;;;;;;;;;;;;16.63;58.53;101130.53;5014514;28;6783;-73
2023/07/18 00:15:16;;;;;;;;;;;;;;;16.62;59.09;101127.91;5015649;28;6879;-72
2023/07/18 00:17:43;;;;;;;;;;;;;;;16.61;59.59;101134.78;5004322;28;6991;-72
2023/07/18 00:20:13;;;;;;;;;;;;;;;16.63;59.77;101134.84;4999039;28;6787;-73
2023/07/18 00:22:40;;;;;;;;;;;;;;;16.60;58.86;101127.84;5012166;28;6807;-73
2023/07/18 00:25:11;;;;;;;;;;;;;;;16.57;59.58;101125.16;5013352;28;6889;-73
2023/07/18 00:27:38;;;;;;;;;;;;;;;16.56;59.23;101123.38;4988100;28;7073;-73
2023/07/18 00:30:06;;;;;;;;;;;;;;;16.55;59.73;101123.34;5000704;28;7033;-73
2023/07/18 00:32:32;;;;;;;;;;;;;;;16.52;59.70;101122.41;4998976;28;7946;-73
2023/07/18 00:34:57;;;;;;;;;;;;;;;16.51;59.21;101123.25;5017715;28;6847;-73
2023/07/18 00:37:23;;;;;;;;;;;;;;;16.52;59.45;101121.50;4995871;28;6974;-73
2023/07/18 00:39:49;;;;;;;;;;;;;;;16.52;59.44;101125.00;5016710;28;6788;-73
2023/07/18 00:42:14;;;;;;;;;;;;;;;16.52;59.98;101122.41;4998748;28;6963;-72
2023/07/18 00:44:40;;;;;;;;;;;;;;;16.54;59.88;101127.63;5014529;28;6787;-73
2023/07/18 00:47:07;;;;;;;;;;;;;;;16.56;59.84;101128.53;4987237;28;6966;-73
2023/07/18 00:49:34;;;;;;;;;;;;;;;16.58;59.92;101128.59;5002350;28;6788;-73
2023/07/18 00:52:01;;;;;;;;;;;;;;;16.61;59.75;101120.94;5008775;28;8552;-73
2023/07/18 00:54:27;;;;;;;;;;;;;;;16.61;59.50;101115.75;4998914;28;7059;-72
2023/07/18 00:56:53;;;;;;;;;;;;;;;16.63;60.25;101114.13;4997194;28;7014;-73
2023/07/18 00:59:20;;;;;;;;;;;;;;;16.69;60.13;101113.47;4995588;28;7218;-73
2023/07/18 01:01:46;;;;;;;;;;;;;;;16.73;60.16;101108.44;4996591;28;6795;-72
2023/07/18 01:04:11;;;;;;;;;;;;;;;16.80;60.25;101106.94;5014178;28;6871;-72
2023/07/18 01:06:38;;;;;;;;;;;;;;;16.87;59.92;101102.84;5015060;28;6816;-73
2023/07/18 01:09:05;;;;;;;;;;;;;;;16.91;59.83;101109.91;4997541;28;6800;-73
2023/07/18 01:11:32;;;;;;;;;;;;;;;16.94;59.92;101103.09;5009541;28;6812;-73
2023/07/18 01:13:57;;;;;;;;;;;;;;;16.96;59.63;101097.97;4997145;28;6816;-72
2023/07/18 01:16:24;;;;;;;;;;;;;;;16.98;59.26;101100.63;5003490;28;6959;-73
2023/07/18 01:18:49;;;;;;;;;;;;;;;16.97;59.09;101091.09;5014006;28;6808;-73
2023/07/18 01:21:19;;;;;;;;;;;;;;;16.96;58.73;101100.56;4997986;28;7653;-72
2023/07/18 01:23:45;;;;;;;;;;;;;;;16.97;58.68;101104.03;5012371;28;6844;-73
2023/07/18 01:26:14;;;;;;;;;;;;;;;16.94;58.53;101091.88;5011085;28;6792;-73
2023/07/18 01:28:40;;;;;;;;;;;;;;;16.93;58.76;101095.28;5014212;28;7136;-72
2023/07/18 01:31:05;;;;;;;;;;;;;;;16.90;58.58;101093.47;5013336;28;6784;-72
2023/07/18 01:33:32;;;;;;;;;;;;;;;16.90;58.79;101095.16;5015295;28;6784;-73
2023/07/18 01:35:57;;;;;;;;;;;;;;;16.87;58.69;101089.91;5010995;28;6804;-73
2023/07/18 01:38:29;;;;;;;;;;;;;;;16.84;58.64;101088.06;4997935;28;7467;-73
2023/07/18 01:41:03;;;;;;;;;;;;;;;16.82;58.37;101092.34;5015016;28;6811;-72
2023/07/18 01:43:29;;;;;;;;;;;;;;;16.78;58.25;101085.31;5000547;28;6856;-72
2023/07/18 01:45:59;;;;;;;;;;;;;;;16.74;58.46;101092.09;5007792;28;6976;-72
2023/07/18 01:48:24;;;;;;;;;;;;;;;16.74;58.48;101086.91;4999709;28;6871;-72
2023/07/18 01:50:50;;;;;;;;;;;;;;;16.75;58.60;101092.94;5006288;28;6787;-73
2023/07/18 01:53:15;;;;;;;;;;;;;;;16.77;58.27;101096.50;5019280;28;6947;-72
2023/07/18 01:55:41;;;;;;;;;;;;;;;16.76;58.23;101090.41;5003396;28;6780;-72
2023/07/18 01:58:06;;;;;;;;;;;;;;;16.77;58.47;101091.31;4999873;28;6803;-72
2023/07/18 02:00:32;;;;;;;;;;;;;;;16.75;58.29;101083.50;5026078;28;6795;-72
2023/07/18 02:02:58;;;;;;;;;;;;;;;16.72;57.75;101080.81;5001946;28;6994;-72
2023/07/18 02:05:25;;;;;;;;;;;;;;;16.71;58.02;101085.91;5012719;28;6795;-72
2023/07/18 02:07:51;;;;;;;;;;;;;;;16.66;58.06;101075.41;4999191;28;6800;-73
2023/07/18 02:10:21;;;;;;;;;;;;;;;16.64;57.98;101083.13;5013519;28;6792;-73
2023/07/18 02:12:47;;;;;;;;;;;;;;;16.61;57.82;101082.13;5005871;28;7078;-73
2023/07/18 02:15:13;;;;;;;;;;;;;;;16.58;57.84;101079.44;4999169;28;6999;-72
2023/07/18 02:17:39;;;;;;;;;;;;;;;16.48;57.84;101076.53;4990062;28;7141;-75
2023/07/18 02:20:06;;;;;;;;;;;;;;;16.41;57.89;101071.97;4984761;28;7268;-76
2023/07/18 02:22:34;;;;;;;;;;;;;;;16.34;57.50;101070.03;4989304;28;7151;-76
2023/07/18 02:25:00;;;;;;;;;;;;;;;16.29;57.98;101067.28;5001011;28;7224;-74
2023/07/18 02:27:25;;;;;;;;;;;;;;;16.28;58.19;101067.22;4999693;28;7098;-75
2023/07/18 02:29:51;;;;;;;;;;;;;;;16.28;58.13;101070.69;5017391;28;7275;-76
2023/07/18 02:32:17;;;;;;;;;;;;;;;16.29;57.82;101071.56;4999075;28;6775;-72
2023/07/18 02:34:43;;;;;;;;;;;;;;;16.30;57.97;101070.72;4999851;28;6784;-75
2023/07/18 02:37:09;;;;;;;;;;;;;;;16.33;58.05;101068.25;5018943;28;7046;-73
2023/07/18 02:39:38;;;;;;;;;;;;;;;16.32;58.09;101066.47;4987370;28;8185;-75
2023/07/18 02:42:07;;;;;;;;;;;;;;;16.33;57.98;101073.44;5016671;28;6796;-72
2023/07/18 02:44:33;;;;;;;;;;;;;;;16.30;58.24;101063.84;5001907;28;6979;-71
2023/07/18 02:46:58;;;;;;;;;;;;;;;16.28;57.71;101064.63;4999799;28;6779;-71
2023/07/18 02:49:24;;;;;;;;;;;;;;;16.23;57.59;101062.78;5016077;28;6788;-73
2023/07/18 02:51:50;;;;;;;;;;;;;;;16.21;57.86;101054.03;4979123;28;7050;-73
2023/07/18 02:54:15;;;;;;;;;;;;;;;16.19;57.66;101055.72;5000853;28;6791;-73
2023/07/18 02:56:41;;;;;;;;;;;;;;;16.15;57.87;101059.03;5015668;28;6886;-73
2023/07/18 02:59:06;;;;;;;;;;;;;;;16.09;57.40;101063.97;5000772;28;6784;-73
2023/07/18 03:01:34;;;;;;;;;;;;;;;16.04;57.56;101057.75;5014710;28;6935;-73
2023/07/18 03:04:00;;;;;;;;;;;;;;;15.99;57.77;101057.59;5001500;28;6828;-73
2023/07/18 03:06:26;;;;;;;;;;;;;;;15.95;58.19;101061.78;5011856;28;7540;-73
2023/07/18 03:08:51;;;;;;;;;;;;;;;15.91;57.83;101064.19;5016432;28;6946;-73
2023/07/18 03:11:18;;;;;;;;;;;;;;;15.88;57.70;101067.50;5014468;28;6787;-73
2023/07/18 03:13:43;;;;;;;;;;;;;;;15.81;58.24;101068.09;5011965;28;7134;-73
2023/07/18 03:16:09;;;;;;;;;;;;;;;15.77;58.11;101068.81;5015348;28;6967;-73
2023/07/18 03:18:34;;;;;;;;;;;;;;;15.75;58.60;101065.31;4986698;28;8518;-73
2023/07/18 03:21:00;;;;;;;;;;;;;;;15.74;58.57;101058.34;5005952;28;7272;-73
2023/07/18 03:23:26;;;;;;;;;;;;;;;15.73;57.91;101057.47;5000319;28;6995;-72
2023/07/18 03:25:51;;;;;;;;;;;;;;;15.73;58.05;101064.34;4997645;28;6967;-73
2023/07/18 03:28:17;;;;;;;;;;;;;;;15.71;57.72;101069.47;5014567;28;7473;-73
2023/07/18 03:30:43;;;;;;;;;;;;;;;15.69;58.40;101059.06;4996133;28;6784;-73
2023/07/18 03:33:08;;;;;;;;;;;;;;;15.68;57.96;101064.16;5001941;28;6792;-73
2023/07/18 03:35:35;;;;;;;;;;;;;;;15.69;57.77;101063.34;5008589;28;7756;-72
2023/07/18 03:38:00;;;;;;;;;;;;;;;15.66;58.51;101058.06;4995071;28;6816;-73
2023/07/18 03:40:26;;;;;;;;;;;;;;;15.65;58.43;101057.19;4997001;28;6840;-73
2023/07/18 03:42:51;;;;;;;;;;;;;;;15.64;58.49;101057.13;5012242;28;7127;-72
2023/07/18 03:45:17;;;;;;;;;;;;;;;15.63;58.45;101053.66;5001323;28;7173;-73
2023/07/18 03:47:43;;;;;;;;;;;;;;;15.62;58.15;101051.91;5006119;28;7261;-74
2023/07/18 03:50:14;;;;;;;;;;;;;;;15.63;57.91;101048.47;4997495;28;6799;-73
2023/07/18 03:52:40;;;;;;;;;;;;;;;15.62;58.26;101051.03;4999053;28;6983;-73
2023/07/18 03:55:06;;;;;;;;;;;;;;;15.60;58.43;101048.38;5009445;28;6795;-73
2023/07/18 03:57:33;;;;;;;;;;;;;;;15.56;58.04;101056.84;4982202;28;6880;-74
2023/07/18 03:59:58;;;;;;;;;;;;;;;15.51;58.26;101053.19;5002431;28;8023;-73
2023/07/18 04:02:24;;;;;;;;;;;;;;;15.41;57.85;101058.00;5008804;28;6795;-73
2023/07/18 04:04:50;;;;;;;;;;;;;;;15.41;58.52;101052.84;4994435;28;6997;-74
2023/07/18 04:07:15;;;;;;;;;;;;;;;15.40;58.50;101045.91;4997021;28;6811;-73
2023/07/18 04:09:41;;;;;;;;;;;;;;;15.39;58.99;101049.31;4997269;28;6870;-73
2023/07/18 04:12:07;;;;;;;;;;;;;;;15.40;58.70;101039.84;4985825;28;7217;-73
2023/07/18 04:14:35;;;;;;;;;;;;;;;15.44;58.47;101049.50;4999818;28;7236;-73
2023/07/18 04:17:01;;;;;;;;;;;;;;;15.46;58.22;101044.41;4998432;28;7101;-73
2023/07/18 04:19:26;;;;;;;;;;;;;;;15.48;59.26;101048.78;5000559;28;6791;-73
2023/07/18 04:21:51;;;;;;;;;;;;;;;15.50;58.71;101048.84;4982207;28;6975;-73
2023/07/18 04:24:17;;;;;;;;;;;;;;;15.52;58.66;101048.09;5013178;28;6965;-74
2023/07/18 04:26:42;;;;;;;;;;;;;;;15.56;58.88;101046.53;5012118;28;6864;-74
2023/07/18 04:29:08;;;;;;;;;;;;;;;15.71;59.72;101040.16;5010562;28;6874;-74
2023/07/18 04:31:33;;;;;;;;;;;;;;;15.96;60.94;101040.25;5011451;28;7258;-73
2023/07/18 04:33:59;;;;;;;;;;;;;;;16.33;61.73;101032.91;4996326;28;6942;-73
2023/07/18 04:36:25;;;;;;;;;;;;;;;16.77;62.39;101035.22;4983413;28;6964;-73
2023/07/18 04:38:50;;;;;;;;;;;;;;;17.26;62.58;101032.47;4995965;28;7141;-73
2023/07/18 04:41:16;;;;;;;;;;;;;;;17.75;62.64;101029.56;4998810;28;6788;-73
2023/07/18 04:43:42;;;;;;;;;;;;;;;18.23;62.55;101022.25;4998465;28;6859;-73
2023/07/18 04:46:08;;;;;;;;;;;;;;;18.68;61.80;101024.25;4998302;28;6842;-74
2023/07/18 04:48:33;;;;;;;;;;;;;;;19.12;61.44;101017.50;4990534;28;7066;-70
2023/07/18 04:51:01;;;;;;;;;;;;;;;19.59;60.75;101022.00;4975577;28;7312;-71
2023/07/18 04:53:28;;;;;;;;;;;;;;;20.04;60.21;101012.50;4996856;28;7228;-71
2023/07/18 04:55:57;;;;;;;;;;;;;;;20.48;59.26;101018.47;4997883;28;6983;-73
2023/07/18 04:58:24;;;;;;;;;;;;;;;20.91;58.43;101018.31;5000632;28;6824;-72
2023/07/18 05:00:51;;;;;;;;;;;;;;;21.30;57.79;101011.91;4991591;28;6811;-70
2023/07/18 05:03:17;;;;;;;;;;;;;;;21.70;57.01;101006.34;4992793;28;6987;-72
2023/07/18 05:05:43;;;;;;;;;;;;;;;22.09;56.18;101008.47;4997066;28;6852;-69
2023/07/18 05:08:08;;;;;;;;;;;;;;;22.43;54.80;101001.84;4994749;28;8451;-70
2023/07/18 05:10:34;;;;;;;;;;;;;;;22.72;53.58;101009.06;4992691;28;7027;-73
2023/07/18 05:12:59;;;;;;;;;;;;;;;22.92;51.79;101013.53;5012966;28;7215;-69
2023/07/18 05:15:25;;;;;;;;;;;;;;;23.02;51.39;101007.50;4994898;28;6844;-70
2023/07/18 05:17:50;;;;;;;;;;;;;;;23.08;50.62;101003.19;4996007;28;6791;-69
2023/07/18 05:20:16;;;;;;;;;;;;;;;23.15;50.24;101003.22;4998011;28;6836;-70
2023/07/18 05:22:43;;;;;;;;;;;;;;;23.28;50.84;101008.56;4994489;28;6888;-70
2023/07/18 05:25:12;;;;;;;;;;;;;;;23.51;51.33;101013.03;4994192;28;6997;-71
2023/07/18 05:27:38;;;;;;;;;;;;;;;23.70;50.41;101007.00;5011611;28;6799;-73
2023/07/18 05:30:06;;;;;;;;;;;;;;;23.81;49.59;101007.03;5004515;28;6860;-72
2023/07/18 05:32:32;;;;;;;;;;;;;;;23.93;49.00;101006.16;4989836;28;7152;-71
2023/07/18 05:34:59;;;;;;;;;;;;;;;24.06;48.87;101014.94;5014156;28;7110;-71
2023/07/18 05:37:25;;;;;;;;;;;;;;;24.25;49.49;101005.38;5011931;28;6823;-70
2023/07/18 05:39:51;;;;;;;;;;;;;;;24.45;48.23;101009.75;5012541;28;7003;-71
2023/07/18 05:42:17;;;;;;;;;;;;;;;24.53;46.76;101010.63;5013407;28;6784;-73
2023/07/18 05:44:42;;;;;;;;;;;;;;;24.62;47.15;101006.22;5012760;28;7121;-70
2023/07/18 05:47:08;;;;;;;;;;;;;;;24.78;46.84;101012.41;4973719;28;6969;-73
2023/07/18 05:49:33;;;;;;;;;;;;;;;24.84;45.34;101011.50;5008024;28;6848;-71
2023/07/18 05:51:59;;;;;;;;;;;;;;;24.80;45.39;101003.63;4998463;28;7336;-70
2023/07/18 05:54:24;;;;;;;;;;;;;;;24.77;44.50;101007.97;4981959;28;7204;-70
2023/07/18 05:56:50;;;;;;;;;;;;;;;24.69;44.94;101003.63;4989582;28;7779;-69
2023/07/18 05:59:15;;;;;;;;;;;;;;;24.58;44.00;101005.41;5010710;28;7083;-70
2023/07/18 06:01:40;;;;;;;;;;;;;;;24.34;43.32;101009.75;5014229;28;6951;-71
2023/07/18 06:04:06;;;;;;;;;;;;;;;24.07;43.22;101007.97;4978607;28;7249;-71
2023/07/18 06:06:32;;;;;;;;;;;;;;;23.80;42.89;101007.00;5011657;28;6783;-70
2023/07/18 06:08:57;;;;;;;;;;;;;;;23.55;43.36;101009.53;4993420;28;7317;-69
2023/07/18 06:11:23;;;;;;;;;;;;;;;23.32;43.15;101020.78;4989892;28;6851;-71
2023/07/18 06:13:49;;;;;;;;;;;;;;;23.08;43.43;101011.94;5011290;28;7133;-70
2023/07/18 06:16:16;;;;;;;;;;;;;;;22.88;43.79;101020.47;5002860;28;6979;-72
2023/07/18 06:18:41;;;;;;;;;;;;;;;22.73;43.99;101023.00;5013867;28;6804;-72
2023/07/18 06:21:07;;;;;;;;;;;;;;;22.60;44.10;101025.53;4995645;28;6934;-69
2023/07/18 06:23:33;;;;;;;;;;;;;;;22.50;44.51;101013.22;5012418;28;7020;-72
2023/07/18 06:25:58;;;;;;;;;;;;;;;22.41;44.31;101018.38;5012114;28;6995;-72
2023/07/18 06:28:24;;;;;;;;;;;;;;;22.32;44.23;101017.44;4984078;28;7057;-73
2023/07/18 06:30:57;;;;;;;;;;;;;;;22.25;44.54;101022.56;5013994;28;7046;-71
2023/07/18 06:33:23;;;;;;;;;;;;;;;22.17;44.79;101010.31;5004187;28;6803;-70
2023/07/18 06:35:53;;;;;;;;;;;;;;;22.11;44.62;101011.97;5013083;28;6804;-69
2023/07/18 06:38:19;;;;;;;;;;;;;;;22.09;44.91;101018.91;5010869;28;6895;-70
2023/07/18 06:40:46;;;;;;;;;;;;;;;22.08;45.28;101011.97;4973553;28;7265;-69
2023/07/18 06:43:11;;;;;;;;;;;;;;;22.06;44.90;101014.53;4997394;28;6938;-69
2023/07/18 06:45:37;;;;;;;;;;;;;;;22.04;45.31;101017.16;4998019;28;6800;-71
2023/07/18 06:48:02;;;;;;;;;;;;;;;22.04;44.97;101019.75;4997533;28;6791;-70
2023/07/18 06:50:29;;;;;;;;;;;;;;;22.06;44.83;101015.44;4996902;28;7015;-70
2023/07/18 06:52:55;;;;;;;;;;;;;;;22.11;45.18;101017.19;5013023;28;6804;-70
2023/07/18 06:55:21;;;;;;;;;;;;;;;22.12;45.25;101005.94;4998243;28;6832;-70
2023/07/18 06:57:48;;;;;;;;;;;;;;;22.15;45.20;101011.16;4996106;28;7120;-69
2023/07/18 07:00:14;;;;;;;;;;;;;;;22.20;45.20;101010.34;5013172;28;7233;-72
2023/07/18 07:02:39;;;;;;;;;;;;;;;22.27;45.05;101007.81;4999398;28;6780;-73
2023/07/18 07:05:05;;;;;;;;;;;;;;;22.33;44.83;101005.22;5000078;28;8703;-69
2023/07/18 07:07:30;;;;;;;;;;;;;;;22.42;45.15;101007.06;4995276;28;6922;-71
2023/07/18 07:09:56;;;;;;;;;;;;;;;22.61;45.60;101023.78;5016476;28;6783;-71
2023/07/18 07:12:21;;;;;;;;;;;;;;;22.85;45.60;101014.38;4994980;28;7209;-71
2023/07/18 07:14:47;;;;;;;;;;;;;;;23.11;45.06;101004.09;4998406;28;6859;-72
2023/07/18 07:17:12;;;;;;;;;;;;;;;23.39;45.51;101014.72;5001205;28;6791;-71
2023/07/18 07:19:39;;;;;;;;;;;;;;;23.75;46.12;101007.00;4999164;28;7336;-72
2023/07/18 07:22:04;;;;;;;;;;;;;;;24.15;44.92;101003.63;4999960;28;6991;-71
2023/07/18 07:24:30;;;;;;;;;;;;;;;24.54;44.80;100991.41;4993304;28;6966;-71
2023/07/18 07:26:56;;;;;;;;;;;;;;;24.94;44.03;100990.50;4981487;28;7226;-71
2023/07/18 07:29:21;;;;;;;;;;;;;;;25.33;43.51;100985.13;5013862;28;6791;-72
2023/07/18 07:31:46;;;;;;;;;;;;;;;25.78;42.76;100987.56;5008837;28;6868;-72
2023/07/18 07:34:12;;;;;;;;;;;;;;;26.27;42.03;100989.88;4997540;28;7279;-71
2023/07/18 07:36:38;;;;;;;;;;;;;;;26.63;41.76;100982.56;4999549;28;6788;-71
2023/07/18 07:39:03;;;;;;;;;;;;;;;26.99;40.93;100983.09;4988412;28;7259;-69
2023/07/18 07:41:29;;;;;;;;;;;;;;;27.30;39.41;100985.34;5004909;28;6919;-69
2023/07/18 07:43:55;;;;;;;;;;;;;;;27.53;39.29;100984.19;5006641;28;7224;-69
2023/07/18 07:46:20;;;;;;;;;;;;;;;27.77;38.89;100979.50;5012967;28;6854;-70
2023/07/18 07:48:46;;;;;;;;;;;;;;;27.97;37.90;100975.69;5014599;28;6825;-70
2023/07/18 07:51:16;;;;;;;;;;;;;;;28.20;38.04;100971.84;4996592;28;6827;-69
2023/07/18 07:53:43;;;;;;;;;;;;;;;28.41;37.15;100975.88;4995953;28;7150;-70
2023/07/18 07:56:09;;;;;;;;;;;;;;;28.61;36.71;100978.16;4993554;28;7081;-71
2023/07/18 07:58:36;;;;;;;;;;;;;;;28.79;36.31;100962.91;5010879;28;7751;-70
2023/07/18 08:01:02;;;;;;;;;;;;;;;29.01;36.34;100955.44;4994171;28;7244;-70
2023/07/18 08:03:27;;;;;;;;;;;;;;;29.21;36.01;100956.78;5011443;28;7010;-70
2023/07/18 08:05:53;;;;;;;;;;;;;;;29.38;35.41;100957.31;5012505;28;6795;-70
2023/07/18 08:08:18;;;;;;;;;;;;;;;29.57;35.55;100958.72;5011568;28;6925;-70
2023/07/18 08:10:44;;;;;;;;;;;;;;;29.80;34.88;100955.53;4997008;28;6792;-71
2023/07/18 08:13:10;;;;;;;;;;;;;;;30.06;34.94;100957.56;5013023;28;6784;-71
2023/07/18 08:15:35;;;;;;;;;;;;;;;30.27;34.21;100955.28;5011132;28;6940;-71
2023/07/18 08:18:01;;;;;;;;;;;;;;;30.39;33.46;100953.22;5012627;28;6890;-70
2023/07/18 08:20:27;;;;;;;;;;;;;;;30.47;33.43;100949.50;4994179;28;7084;-69
2023/07/18 08:22:54;;;;;;;;;;;;;;;30.58;33.37;100949.19;4998755;28;6796;-70
2023/07/18 08:25:19;;;;;;;;;;;;;;;30.61;33.17;100949.13;5001343;28;7192;-70
2023/07/18 08:27:45;;;;;;;;;;;;;;;30.47;32.28;100952.13;5015233;28;6971;-70
2023/07/18 08:30:11;;;;;;;;;;;;;;;30.32;32.46;100958.66;4997207;28;6859;-69
2023/07/18 08:32:37;;;;;;;;;;;;;;;30.21;32.13;100955.44;5001292;28;6896;-70
2023/07/18 08:35:04;;;;;;;;;;;;;;;30.12;32.22;100953.03;5010099;28;7086;-70
2023/07/18 08:37:29;;;;;;;;;;;;;;;30.01;32.16;100950.66;4992607;28;6828;-70
2023/07/18 08:39:55;;;;;;;;;;;;;;;29.98;31.66;100942.78;4997102;28;6961;-70
2023/07/18 08:42:26;;;;;;;;;;;;;;;29.92;31.79;100949.97;4999062;28;7030;-70
2023/07/18 08:44:53;;;;;;;;;;;;;;;29.94;32.00;100952.56;4997573;28;6803;-70
2023/07/18 08:47:21;;;;;;;;;;;;;;;30.01;31.82;100953.28;4996610;28;6804;-70
2023/07/18 08:49:47;;;;;;;;;;;;;;;30.04;31.89;100950.56;5005456;28;8484;-70
2023/07/18 08:52:13;;;;;;;;;;;;;;;30.11;31.73;100946.00;4998248;28;6966;-69
2023/07/18 08:54:38;;;;;;;;;;;;;;;30.16;31.88;100931.78;4996822;28;6788;-70
2023/07/18 08:57:05;;;;;;;;;;;;;;;30.18;31.45;100929.09;4997186;28;6824;-70
2023/07/18 08:59:31;;;;;;;;;;;;;;;30.18;31.65;100921.16;5002465;28;6971;-70
2023/07/18 09:01:56;;;;;;;;;;;;;;;30.23;31.06;100913.13;5014138;28;6780;-71
2023/07/18 09:04:22;;;;;;;;;;;;;;;30.39;31.36;100910.94;4980444;28;7442;-70
2023/07/18 09:06:57;;;;;;;;;;;;;;;30.73;31.32;100910.03;4996571;28;6925;-70
2023/07/18 09:09:23;;;;;;;;;;;;;;;30.94;31.20;100910.31;4994798;28;7153;-71
2023/07/18 09:12:00;;;;;;;;;;;;;;;30.95;30.02;100915.56;4992761;28;7141;-70
2023/07/18 09:14:27;;;;;;;;;;;;;;;30.84;30.76;100910.59;5014171;28;6796;-70
2023/07/18 09:16:54;;;;;;;;;;;;;;;30.70;30.66;100915.41;4994938;28;7069;-70
2023/07/18 09:19:35;;;;;;;;;;;;;;;30.87;30.85;100913.13;5001205;28;6880;-70
2023/07/18 09:22:01;;;;;;;;;;;;;;;31.40;30.54;100911.59;4991351;28;6812;-71
2023/07/18 09:24:31;;;;;;;;;;;;;;;31.73;29.83;100906.13;5011703;28;7144;-71
2023/07/18 09:26:56;;;;;;;;;;;;;;;31.79;29.17;100913.00;4997232;28;7173;-70
2023/07/18 09:29:22;;;;;;;;;;;;;;;31.71;28.80;100902.66;4996407;28;7780;-70
2023/07/18 09:31:49;;;;;;;;;;;;;;;31.62;28.83;100902.97;5010285;28;7381;-70
2023/07/18 09:34:16;;;;;;;;;;;;;;;31.62;29.31;100899.44;5002250;28;7198;-70
2023/07/18 09:36:57;;;;;;;;;;;;;;;31.57;29.22;100902.25;4991667;28;7360;-71
2023/07/18 09:39:24;;;;;;;;;;;;;;;31.38;28.78;100902.81;4992278;28;6808;-71
2023/07/18 09:41:51;;;;;;;;;;;;;;;31.24;29.41;100905.94;4992332;28;6816;-70
2023/07/18 09:44:19;;;;;;;;;;;;;;;31.06;29.69;100886.13;4999814;28;6792;-71
2023/07/18 09:46:44;;;;;;;;;;;;;;;31.00;29.39;100886.31;4994816;28;6942;-71
2023/07/18 09:49:10;;;;;;;;;;;;;;;30.95;29.90;100899.66;4980531;28;7087;-70
2023/07/18 09:51:38;;;;;;;;;;;;;;;30.92;29.66;100893.63;4995343;28;6825;-70
2023/07/18 09:54:06;;;;;;;;;;;;;;;30.79;30.33;100893.97;5017277;28;6981;-71
2023/07/18 09:56:38;;;;;;;;;;;;;;;30.63;30.67;100891.75;4998617;28;6855;-70
2023/07/18 09:59:07;;;;;;;;;;;;;;;30.54;30.34;100897.31;5010245;28;7109;-70
2023/07/18 10:01:32;;;;;;;;;;;;;;;30.56;30.29;100891.94;4995666;28;6876;-71
2023/07/18 10:03:58;;;;;;;;;;;;;;;30.56;30.83;100884.91;4998737;28;6791;-70
2023/07/18 10:06:25;;;;;;;;;;;;;;;30.52;30.62;100872.69;5001052;28;7627;-70
2023/07/18 10:08:53;;;;;;;;;;;;;;;30.46;30.15;100865.75;4997959;28;7000;-70
2023/07/18 10:11:19;;;;;;;;;;;;;;;30.39;30.32;100868.63;5014498;28;6800;-70
2023/07/18 10:14:06;;;;;;;;;;;;;;;30.29;30.61;100858.31;4995321;28;8667;-70
2023/07/18 10:16:35;;;;;;;;;;;;;;;30.20;30.77;100863.84;4999019;28;6820;-70
2023/07/18 10:19:17;;;;;;;;;;;;;;;30.12;30.62;100876.38;5004158;28;6799;-70
2023/07/18 10:21:46;;;;;;;;;;;;;;;30.06;30.90;100865.09;5003741;28;7217;-70
2023/07/18 10:24:21;;;;;;;;;;;;;;;30.05;30.51;100858.06;4999088;28;7459;-70
2023/07/18 10:26:48;;;;;;;;;;;;;;;30.06;30.74;100854.53;4999011;28;6812;-70
2023/07/18 10:29:14;;;;;;;;;;;;;;;30.13;31.32;100855.22;5001294;28;6796;-70
2023/07/18 10:31:40;;;;;;;;;;;;;;;30.19;30.78;100854.19;5013163;28;6852;-70
2023/07/18 10:34:14;;;;;;;;;;;;;;;30.16;29.88;100855.13;4999079;28;6943;-70
2023/07/18 10:36:53;;;;;;;;;;;;;;;30.11;30.69;100850.88;5011909;28;6854;-70
2023/07/18 10:39:18;;;;;;;;;;;;;;;30.05;29.79;100843.97;5000814;28;6935;-70
2023/07/18 10:41:45;;;;;;;;;;;;;;;30.03;30.40;100846.63;5001812;28;8158;-70
2023/07/18 10:44:12;;;;;;;;;;;;;;;30.06;30.65;100838.66;5013247;28;6808;-70
2023/07/18 10:46:39;;;;;;;;;;;;;;;30.13;30.89;100834.09;5014698;28;7371;-71
2023/07/18 10:49:05;;;;;;;;;;;;;;;30.17;30.49;100832.22;4996458;28;6804;-70
2023/07/18 10:51:35;;;;;;;;;;;;;;;30.23;30.25;100828.53;5002297;28;7255;-71
2023/07/18 10:54:01;;;;;;;;;;;;;;;30.30;30.49;100824.81;4998508;28;6808;-71
2023/07/18 10:56:27;;;;;;;;;;;;;;;30.51;30.14;100817.19;5015677;28;6876;-71
2023/07/18 10:58:55;;;;;;;;;;;;;;;30.83;29.75;100820.69;5014532;28;7222;-71
2023/07/18 11:01:23;;;;;;;;;;;;;;;31.15;29.51;100816.19;5011579;28;6811;-70
2023/07/18 11:03:49;;;;;;;;;;;;;;;31.26;29.27;100829.09;5003356;28;6811;-70
2023/07/18 11:06:15;;;;;;;;;;;;;;;31.20;29.14;100824.81;5012116;28;6784;-72
2023/07/18 11:08:45;;;;;;;;;;;;;;;31.00;28.96;100812.22;4998247;28;7195;-69
2023/07/18 11:11:10;;;;;;;;;;;;;;;30.76;29.03;100806.78;4983362;28;7010;-70
2023/07/18 11:13:37;;;;;;;;;;;;;;;30.63;29.57;100804.47;5011822;28;6808;-71
2023/07/18 11:16:08;;;;;;;;;;;;;;;30.67;29.31;100805.28;4989834;28;7225;-71
2023/07/18 11:18:35;;;;;;;;;;;;;;;30.84;30.07;100807.41;4984444;28;7065;-71
2023/07/18 11:21:02;;;;;;;;;;;;;;;31.09;30.18;100801.34;5002227;28;6836;-71
2023/07/18 11:23:28;;;;;;;;;;;;;;;31.33;29.62;100801.50;5000057;28;6796;-72
2023/07/18 11:25:54;;;;;;;;;;;;;;;31.53;30.18;100799.97;5003369;28;6879;-72
2023/07/18 11:28:19;;;;;;;;;;;;;;;31.72;29.79;100801.09;4983488;28;7393;-71
2023/07/18 11:30:45;;;;;;;;;;;;;;;31.96;29.35;100798.50;5015097;28;6787;-72
2023/07/18 11:33:14;;;;;;;;;;;;;;;32.23;28.71;100798.44;5015619;28;6788;-71
2023/07/18 11:35:47;;;;;;;;;;;;;;;32.64;28.63;100797.84;5011412;28;6799;-72
2023/07/18 11:38:16;;;;;;;;;;;;;;;33.34;28.78;100788.91;5000527;28;7009;-72
2023/07/18 11:40:42;;;;;;;;;;;;;;;34.14;27.63;100789.97;4998601;28;6804;-72
2023/07/18 11:43:16;;;;;;;;;;;;;;;34.88;26.69;100785.69;4999877;28;6800;-72
2023/07/18 11:45:43;;;;;;;;;;;;;;;35.21;25.76;100778.81;5015943;28;6807;-72
2023/07/18 11:48:09;;;;;;;;;;;;;;;35.50;25.76;100783.59;4999365;28;6808;-71
2023/07/18 11:50:35;;;;;;;;;;;;;;;35.85;25.44;100786.25;4990632;28;7247;-72
2023/07/18 11:53:02;;;;;;;;;;;;;;;36.20;25.17;100767.53;5011280;28;6812;-72
2023/07/18 11:55:30;;;;;;;;;;;;;;;36.82;24.24;100773.97;4994952;28;7908;-72
2023/07/18 11:57:56;;;;;;;;;;;;;;;37.57;24.08;100770.53;4991014;28;7305;-72
2023/07/18 12:00:22;;;;;;;;;;;;;;;37.96;23.22;100762.84;5011497;28;7149;-72
2023/07/18 12:02:48;;;;;;;;;;;;;;;38.18;23.23;100764.19;5013546;28;6876;-72
2023/07/18 12:05:14;;;;;;;;;;;;;;;38.48;22.64;100760.50;4997696;28;6787;-72
2023/07/18 12:07:40;;;;;;;;;;;;;;;38.73;22.26;100762.47;5003613;28;6845;-72
2023/07/18 12:10:06;;;;;;;;;;;;;;;38.93;22.19;100764.78;4997106;28;6784;-72
2023/07/18 12:12:35;;;;;;;;;;;;;;;39.01;21.48;100754.44;5012362;28;6788;-72
2023/07/18 12:15:01;;;;;;;;;;;;;;;38.98;21.55;100752.84;4998594;28;6792;-72
2023/07/18 12:17:27;;;;;;;;;;;;;;;39.05;21.42;100745.25;4993111;28;6784;-72
2023/07/18 12:19:52;;;;;;;;;;;;;;;39.14;21.15;100744.63;5001447;28;6779;-72
2023/07/18 12:22:18;;;;;;;;;;;;;;;39.16;21.28;100747.16;4986804;28;7256;-72
2023/07/18 12:24:44;;;;;;;;;;;;;;;39.26;21.36;100748.28;4984219;28;7010;-72
2023/07/18 12:27:10;;;;;;;;;;;;;;;39.38;21.38;100740.38;4995994;28;6791;-72
2023/07/18 12:29:36;;;;;;;;;;;;;;;39.52;21.37;100734.91;5014409;28;6804;-72
2023/07/18 12:32:03;;;;;;;;;;;;;;;39.67;20.92;100732.16;4994647;28;6802;-72
2023/07/18 12:34:28;;;;;;;;;;;;;;;39.76;20.84;100723.44;4997804;28;7136;-72
2023/07/18 12:36:54;;;;;;;;;;;;;;;39.86;20.83;100729.00;4992335;28;6796;-72
2023/07/18 12:39:19;;;;;;;;;;;;;;;39.99;20.47;100734.38;5008273;28;7144;-72
2023/07/18 12:41:45;;;;;;;;;;;;;;;40.04;20.36;100728.69;4985052;28;6950;-72
2023/07/18 12:44:18;;;;;;;;;;;;;;;39.93;20.21;100724.94;4998647;28;6788;-72